Time;durP1;ratioP1;P1;durP2;ratioP2;P2;SDS_P1;SDS_P2;PMS_P1;PMS_P2;Temp;Humidity;BMP_temperature;BMP_pressure;BME280_temperature;BME280_humidity;BME280_pressure;Samples;Min_cycle;Max_cycle;Signal;HPM_P1;HPM_P2
2021/06/17 00:04:54;;;;;;;8.70;5.20;;;24.30;99.80;;;;;;6731601;88;20248;-78
2021/06/17 00:14:55;;;;;;;8.05;4.87;;;24.30;99.70;;;;;;6739182;88;20579;-78
2021/06/17 00:24:55;;;;;;;5.55;4.57;;;24.20;99.70;;;;;;6738809;88;20251;-79
2021/06/17 00:34:56;;;;;;;6.40;4.97;;;24.20;99.70;;;;;;6737852;88;20367;-79
2021/06/17 00:44:56;;;;;;;6.00;4.60;;;24.00;99.90;;;;;;6733281;88;20181;-79
2021/06/17 00:54:58;;;;;;;8.45;4.80;;;24.00;99.90;;;;;;6738985;88;20673;-79
2021/06/17 01:04:59;;;;;;;6.65;4.65;;;23.80;99.90;;;;;;6734761;88;20194;-79
2021/06/17 01:15:14;;;;;;;8.98;5.10;;;23.60;99.90;;;;;;6735941;88;20216;-78
2021/06/17 01:25:53;;;;;;;6.78;4.82;;;23.50;99.90;;;;;;6761030;77;20228;-78
2021/06/17 01:35:58;;;;;;;8.13;4.60;;;23.40;99.90;;;;;;6761342;87;20212;-79
2021/06/17 01:45:59;;;;;;;5.45;4.68;;;23.40;99.90;;;;;;6763981;87;20184;-77
2021/06/17 01:56:01;;;;;;;7.37;4.50;;;23.30;99.90;;;;;;6768445;87;20191;-79
2021/06/17 02:06:02;;;;;;;7.22;4.25;;;23.30;99.90;;;;;;6770625;87;20633;-79
2021/06/17 02:16:04;;;;;;;6.62;4.60;;;23.30;99.90;;;;;;6766868;87;20217;-78
2021/06/17 02:26:07;;;;;;;6.32;4.53;;;23.20;99.90;;;;;;6773580;87;20224;-78
2021/06/17 02:36:12;;;;;;;8.25;4.78;;;23.00;99.90;;;;;;6760759;87;20809;-78
2021/06/17 02:46:15;;;;;;;6.25;4.80;;;22.80;99.90;;;;;;6763324;87;20203;-78
2021/06/17 02:56:40;;;;;;;8.85;4.80;;;22.60;99.90;;;;;;6776443;87;20197;-79
2021/06/17 03:06:49;;;;;;;8.07;5.30;;;22.50;99.90;;;;;;6764917;87;20172;-78
2021/06/17 03:16:53;;;;;;;10.05;4.72;;;22.50;99.90;;;;;;6762513;87;20188;-79
2021/06/17 03:26:56;;;;;;;8.00;5.18;;;22.40;99.90;;;;;;6775281;87;20723;-79
2021/06/17 03:36:58;;;;;;;9.27;5.30;;;22.30;99.90;;;;;;6760288;87;20172;-78
2021/06/17 03:47:00;;;;;;;5.93;4.87;;;22.20;99.90;;;;;;6774599;87;20711;-78
2021/06/17 03:57:02;;;;;;;6.55;4.80;;;22.10;99.90;;;;;;6779559;87;20174;-79
2021/06/17 04:07:08;;;;;;;7.35;4.90;;;22.20;99.90;;;;;;6771133;87;20207;-78
2021/06/17 04:17:12;;;;;;;7.43;4.85;;;22.30;99.90;;;;;;6765942;87;20185;-78
2021/06/17 04:27:14;;;;;;;6.73;5.00;;;22.30;99.90;;;;;;6757582;88;20323;-79
2021/06/17 04:37:17;;;;;;;7.35;5.05;;;22.30;99.90;;;;;;6761623;87;20273;-78
2021/06/17 04:47:18;;;;;;;7.63;5.07;;;22.30;99.90;;;;;;6773563;87;20208;-78
2021/06/17 04:57:19;;;;;;;8.48;4.80;;;22.60;99.90;;;;;;6759290;87;20672;-78
2021/06/17 05:17:20;;;;;;;8.02;4.50;;;23.20;99.90;;;;;;6756001;88;20765;-79
2021/06/17 05:27:20;;;;;;;9.10;4.23;;;23.60;99.90;;;;;;6764078;87;20324;-77
2021/06/17 05:37:21;;;;;;;10.45;4.40;;;23.80;99.90;;;;;;6768060;87;20231;-78
2021/06/17 05:47:22;;;;;;;8.20;4.03;;;23.90;99.90;;;;;;6776744;87;20619;-78
2021/06/17 05:57:22;;;;;;;8.18;4.35;;;24.10;99.90;;;;;;6766148;87;20186;-78
2021/06/17 06:07:23;;;;;;;6.00;4.07;;;24.60;99.90;;;;;;6763175;87;20207;-79
2021/06/17 06:17:23;;;;;;;5.55;3.70;;;25.10;99.90;;;;;;6762059;87;21112;-77
2021/06/17 06:27:24;;;;;;;5.30;3.60;;;25.70;99.90;;;;;;6764000;87;20206;-78
2021/06/17 06:37:28;;;;;;;6.18;4.00;;;26.30;99.70;;;;;;6764483;87;21090;-79
2021/06/17 06:47:28;;;;;;;6.12;3.47;;;26.30;99.00;;;;;;6758453;87;20668;-79
2021/06/17 06:57:30;;;;;;;9.95;3.70;;;26.70;98.20;;;;;;6775140;87;20217;-78
2021/06/17 07:07:31;;;;;;;7.32;3.60;;;27.20;97.50;;;;;;6753855;87;20685;-78
2021/06/17 07:17:31;;;;;;;10.75;4.00;;;27.90;96.90;;;;;;6756088;87;20253;-78
2021/06/17 07:27:32;;;;;;;4.87;3.80;;;28.30;96.30;;;;;;6759831;77;20168;-77
2021/06/17 07:37:32;;;;;;;5.68;3.90;;;28.60;95.00;;;;;;6769609;87;20183;-76
2021/06/17 07:47:33;;;;;;;6.82;3.80;;;29.00;94.90;;;;;;6773260;87;20217;-77
2021/06/17 07:57:33;;;;;;;7.57;4.00;;;29.60;94.10;;;;;;6777233;87;20174;-75
2021/06/17 08:07:34;;;;;;;7.40;3.72;;;29.00;94.40;;;;;;6770410;87;20206;-76
2021/06/17 08:17:35;;;;;;;7.80;3.75;;;29.30;93.80;;;;;;6769338;87;20192;-77
2021/06/17 08:27:36;;;;;;;9.82;4.05;;;30.10;93.10;;;;;;6769475;87;20186;-76
2021/06/17 08:37:36;;;;;;;5.97;3.80;;;30.30;92.70;;;;;;6769595;87;20195;-76
2021/06/17 08:47:38;;;;;;;5.93;3.83;;;30.40;92.70;;;;;;6768825;87;20202;-77
2021/06/17 08:57:38;;;;;;;8.43;3.80;;;30.50;92.70;;;;;;6754670;87;20222;-77
2021/06/17 09:07:41;;;;;;;5.30;3.78;;;31.80;92.10;;;;;;6750648;87;20196;-77
2021/06/17 09:17:42;;;;;;;7.45;4.25;;;32.20;91.40;;;;;;6767330;87;20784;-77
2021/06/17 09:27:43;;;;;;;10.30;4.20;;;32.50;90.60;;;;;;6767236;87;20334;-76
2021/06/17 09:37:44;;;;;;;5.53;4.00;;;32.60;90.40;;;;;;6759661;87;20183;-76
2021/06/17 09:47:45;;;;;;;6.17;4.10;;;33.00;90.00;;;;;;6768460;87;20242;-73
2021/06/17 09:57:46;;;;;;;12.27;4.00;;;33.80;87.60;;;;;;6775030;87;20337;-76
2021/06/17 10:07:48;;;;;;;5.82;3.90;;;34.30;85.60;;;;;;6776508;87;20188;-77
2021/06/17 10:17:51;;;;;;;7.75;4.00;;;33.80;84.60;;;;;;6764068;87;20351;-77
2021/06/17 10:27:57;;;;;;;5.95;3.67;;;34.10;84.80;;;;;;6753840;87;20238;-77
2021/06/17 10:38:06;;;;;;;8.25;3.72;;;35.30;81.80;;;;;;6757686;87;20413;-76
2021/06/17 10:48:12;;;;;;;4.55;3.40;;;35.50;79.30;;;;;;6757903;87;20264;-76
2021/06/17 10:58:13;;;;;;;5.55;3.45;;;35.30;77.90;;;;;;6750721;87;20191;-76
2021/06/17 11:08:14;;;;;;;6.72;3.35;;;34.80;77.80;;;;;;6761245;87;20189;-76
2021/06/17 11:18:15;;;;;;;6.60;4.03;;;35.40;77.60;;;;;;6750580;88;20781;-77
2021/06/17 11:28:16;;;;;;;8.82;4.50;;;35.00;77.90;;;;;;6755872;87;20280;-77
2021/06/17 11:38:25;;;;;;;7.63;4.90;;;35.90;78.40;;;;;;6756068;87;20203;-76
2021/06/17 11:48:27;;;;;;;6.95;4.75;;;35.00;79.60;;;;;;6763184;87;20660;-76
2021/06/17 11:58:31;;;;;;;9.10;5.00;;;35.30;79.00;;;;;;6772860;87;20967;-76
2021/06/17 12:08:32;;;;;;;8.43;4.72;;;36.10;78.40;;;;;;6751649;87;20249;-76
2021/06/17 12:18:40;;;;;;;12.65;5.20;;;35.40;78.80;;;;;;6764781;87;20757;-76
2021/06/17 12:28:58;;;;;;;9.13;5.07;;;35.40;80.10;;;;;;6757092;87;20189;-77
2021/06/17 12:39:10;;;;;;;6.55;5.10;;;35.50;78.00;;;;;;6755868;87;20328;-78
2021/06/17 12:59:13;;;;;;;6.95;5.05;;;37.80;72.00;;;;;;6770148;87;20686;-76
2021/06/17 13:09:30;;;;;;;7.35;5.15;;;37.60;71.70;;;;;;6756792;87;20212;-77
2021/06/17 13:19:32;;;;;;;6.00;5.40;;;37.00;72.80;;;;;;6769370;87;20204;-79
2021/06/17 13:29:33;;;;;;;5.72;5.07;;;36.80;74.70;;;;;;6766318;87;20713;-77
2021/06/17 13:39:33;;;;;;;5.25;4.75;;;38.20;73.50;;;;;;6761923;87;20215;-79
2021/06/17 13:49:35;;;;;;;7.35;4.62;;;37.80;68.70;;;;;;6761489;87;20192;-79
2021/06/17 13:59:39;;;;;;;9.07;5.03;;;37.70;68.30;;;;;;6769628;87;20208;-78
2021/06/17 14:09:39;;;;;;;9.68;4.70;;;37.00;69.20;;;;;;6773572;87;20172;-78
2021/06/17 14:19:40;;;;;;;7.75;4.53;;;37.30;67.80;;;;;;6757638;87;20213;-78
2021/06/17 14:29:41;;;;;;;6.47;4.37;;;36.90;67.60;;;;;;6763946;87;20187;-76
2021/06/17 14:39:43;;;;;;;7.93;4.53;;;37.90;68.20;;;;;;6760514;87;20240;-77
2021/06/17 14:49:43;;;;;;;7.78;4.50;;;38.20;66.90;;;;;;6773496;87;20307;-75
2021/06/17 14:59:44;;;;;;;8.52;4.53;;;38.30;66.90;;;;;;6772905;87;20312;-76
2021/06/17 15:09:44;;;;;;;6.15;4.20;;;39.10;65.60;;;;;;6771222;87;20794;-74
2021/06/17 15:19:45;;;;;;;7.85;4.53;;;38.20;66.50;;;;;;6754352;87;20769;-78
2021/06/17 15:29:46;;;;;;;8.47;4.27;;;37.50;66.40;;;;;;6749464;87;20697;-76
2021/06/17 15:39:47;;;;;;;7.05;4.37;;;37.60;66.10;;;;;;6747685;87;20192;-76
2021/06/17 15:49:47;;;;;;;9.15;4.30;;;37.70;66.00;;;;;;6754878;87;20184;-77
2021/06/17 15:59:48;;;;;;;7.20;4.30;;;38.10;64.80;;;;;;6750851;87;20217;-77
2021/06/17 16:09:48;;;;;;;11.35;4.30;;;37.80;65.10;;;;;;6761147;87;20180;-77
2021/06/17 16:19:49;;;;;;;7.97;4.35;;;38.90;64.90;;;;;;6756839;87;20221;-76
2021/06/17 16:29:49;;;;;;;7.97;4.45;;;36.70;66.60;;;;;;6758677;87;20249;-77
2021/06/17 16:39:51;;;;;;;;;;;36.80;66.90;;;;;;6756277;87;20200;-76
2021/06/17 16:49:52;;;;;;;6.43;4.57;;;36.90;67.40;;;;;;6767433;87;20065;-80
2021/06/17 16:59:53;;;;;;;10.02;4.82;;;35.90;70.80;;;;;;6760742;87;20212;-77
2021/06/17 17:09:53;;;;;;;10.13;4.90;;;35.10;71.00;;;;;;6764071;87;20244;-78
2021/06/17 17:19:54;;;;;;;9.85;4.68;;;35.40;71.00;;;;;;6769793;87;20174;-78
2021/06/17 17:29:54;;;;;;;8.10;4.62;;;35.70;70.20;;;;;;6761879;87;20309;-77
2021/06/17 17:39:55;;;;;;;8.88;4.80;;;36.40;68.90;;;;;;6757777;87;20219;-77
2021/06/17 17:49:57;;;;;;;8.85;5.15;;;36.00;70.30;;;;;;6758806;87;20662;-78
2021/06/17 17:59:58;;;;;;;9.43;5.18;;;35.60;71.50;;;;;;6760631;87;20675;-78
2021/06/17 18:10:00;;;;;;;10.27;5.10;;;35.10;71.80;;;;;;6767821;87;20217;-78
2021/06/17 18:20:01;;;;;;;10.32;5.12;;;35.00;73.50;;;;;;6767805;87;20497;-78
2021/06/17 18:30:05;;;;;;;8.80;5.20;;;35.40;73.80;;;;;;6766045;87;20176;-79
2021/06/17 18:40:07;;;;;;;10.38;5.12;;;35.50;73.40;;;;;;6768756;87;20496;-78
2021/06/17 18:50:08;;;;;;;9.02;4.90;;;34.40;74.80;;;;;;6766213;87;20199;-79
2021/06/17 19:00:11;;;;;;;9.77;5.43;;;33.50;76.50;;;;;;6760798;87;20180;-80
2021/06/17 19:10:12;;;;;;;7.75;5.25;;;32.90;77.80;;;;;;6758662;87;20263;-80
2021/06/17 19:20:17;;;;;;;9.10;5.13;;;32.30;78.80;;;;;;6759505;87;20216;-77
2021/06/17 19:30:22;;;;;;;10.75;3.90;;;31.60;81.50;;;;;;6750623;88;20184;-80
2021/06/17 19:40:23;;;;;;;9.32;4.05;;;31.50;81.00;;;;;;6758126;88;20232;-79
2021/06/17 19:50:23;;;;;;;12.30;4.50;;;31.10;82.50;;;;;;6755258;88;20700;-79
2021/06/17 20:00:26;;;;;;;8.17;4.37;;;30.80;84.80;;;;;;6749121;88;20204;-76
2021/06/17 20:10:26;;;;;;;7.78;3.87;;;30.50;86.30;;;;;;6748832;88;20223;-77
2021/06/17 20:20:27;;;;;;;9.13;3.62;;;30.20;87.70;;;;;;6751975;87;20204;-77
2021/06/17 20:30:29;;;;;;;10.07;3.60;;;30.00;88.70;;;;;;6753259;88;20706;-78
2021/06/17 20:40:29;;;;;;;8.87;3.60;;;29.70;89.80;;;;;;6752647;88;20203;-77
2021/06/17 20:50:30;;;;;;;6.03;3.50;;;29.40;90.40;;;;;;6749015;88;20197;-77
2021/06/17 21:00:31;;;;;;;9.20;3.40;;;29.30;90.50;;;;;;6752141;88;20635;-77
2021/06/17 21:10:32;;;;;;;7.83;3.50;;;29.10;90.90;;;;;;6752410;88;20203;-79
2021/06/17 21:20:33;;;;;;;6.35;3.40;;;29.00;90.90;;;;;;6758910;87;20616;-79
2021/06/17 21:30:34;;;;;;;7.40;3.20;;;28.70;91.60;;;;;;6762210;88;20648;-79
2021/06/17 21:40:36;;;;;;;8.25;3.62;;;28.50;91.90;;;;;;6757789;88;20213;-80
2021/06/17 21:50:38;;;;;;;5.22;3.30;;;28.40;92.40;;;;;;6762698;88;20994;-79
2021/06/17 22:00:39;;;;;;;9.13;4.00;;;28.20;93.00;;;;;;6763012;88;20211;-79
2021/06/17 22:10:39;;;;;;;9.88;3.87;;;28.40;93.60;;;;;;6763163;88;20223;-78
2021/06/17 22:20:40;;;;;;;9.73;3.72;;;28.00;94.30;;;;;;6763552;88;20245;-79
2021/06/17 22:30:41;;;;;;;9.88;3.60;;;27.80;94.20;;;;;;6763677;88;20770;-79
2021/06/17 22:40:41;;;;;;;12.37;3.47;;;27.50;94.50;;;;;;6760128;88;20183;-80
2021/06/17 22:50:42;;;;;;;8.88;3.20;;;27.30;94.80;;;;;;6758818;88;20184;-78
2021/06/17 23:00:42;;;;;;;6.12;3.10;;;27.10;94.90;;;;;;6760894;88;20199;-78
2021/06/17 23:10:44;;;;;;;9.40;3.12;;;27.00;94.70;;;;;;6761730;88;21048;-77
2021/06/17 23:20:45;;;;;;;6.82;3.10;;;27.00;95.30;;;;;;6759738;88;20201;-78
2021/06/17 23:30:46;;;;;;;5.57;3.00;;;26.80;95.40;;;;;;6760462;88;20215;-78
2021/06/17 23:40:47;;;;;;;9.35;4.78;;;26.70;96.00;;;;;;6761384;88;20208;-79
2021/06/17 23:50:51;;;;;;;10.77;4.65;;;26.60;97.70;;;;;;6759175;88;20254;-78
